x

Santa Monica Basin - 33nm Wsw Of Santa Monica, Ca (46025) Wave Buoy

5:50am - Wed 28th Jun 2017 All times are PDT. -7 hours from GMT.

  • Sig Wave height 3.6ft
  • Swell Direction
  • Peak Period 6s
  • Average Period 5s
  • Wind
    11mph, 13mph gusts
  • Sea Temp 65°f
  • Air Temp 62°f
  • Sea Pressure 1011mb
  • Santa Monica Basin - 33nm Wsw Of Santa Monica, Ca
  • Santa Monica Basin - 33nm Wsw Of Santa Monica, Ca

More Historic Weather Station data

Upgrade to MSW Pro to gain access to the past 30 days of data for over 8000 Wavebouys and Weather Stations around the globe.

Join Pro

Comparision Forecast

View Surf forecast
   
Wed 06/28 5:50am 3.5ft 6s 5s 11 13 mph 1011mb 65f 62f
5:40am  -   -   -  13 18 mph 1010.9mb 65f 62f
5:30am  -   -   -  13 18 mph 1010.8mb 65f 62f
5:20am  -   -   -  16 18 mph 1010.6mb 65f 61f
5:10am  -   -   -  16 20 mph 1010.5mb 65f 61f
5:00am  -   -   -  16 20 mph 1010.5mb 65f 61f
4:50am 4.5ft 6s 5s 16 20 mph 1010.5mb 65f 61f
4:40am 4.5ft  -  5s 18 20 mph 1010.4mb 65f 61f
4:30am  -   -   -  18 22 mph 1010.3mb 65f 61f
4:20am  -   -   -  16 20 mph 1010.3mb 65f 61f
4:10am  -   -   -  16 20 mph 1010.3mb 65f 61f
4:00am  -   -   -  16 20 mph 1010.3mb 65f 62f
3:50am 4.5ft 7s 5s 16 20 mph 1010.4mb 65f 62f
3:40am  -   -   -  16 20 mph 1010.3mb 65f 62f
3:30am  -   -   -  16 18 mph 1010.1mb 66f 62f
3:20am  -   -   -  16 18 mph 1010.1mb 66f 62f
3:10am  -   -   -  13 18 mph 1010.1mb 66f 62f
3:00am  -   -   -  13 16 mph 1010.1mb 66f 62f
2:50am 4ft 7s 6s 13 18 mph 1010.1mb 66f 62f
2:40am  -   -   -  13 16 mph 1010.1mb 66f 62f
2:30am  -   -   -  13 16 mph 1010.1mb 66f 62f
2:20am  -   -   -  13 16 mph 1010.1mb 66f 62f
2:10am  -   -   -  13 18 mph 1010.1mb 66f 62f
2:00am  -   -   -  13 18 mph 1010.1mb 66f 62f
1:50am 4.5ft 7s 6s 11 13 mph 1010.3mb 66f 62f
1:40am 4.5ft  -  6s 9 11 mph 1010.4mb 66f 62f
1:30am  -   -   -  9 11 mph 1010.4mb 66f 62f
1:20am  -   -   -  9 11 mph 1010.5mb 66f 62f
1:10am  -   -   -  7 11 mph 1010.5mb 66f 63f
1:00am  -   -   -  7 9 mph 1010.6mb 66f 62f
12:50am 4.5ft 6s 6s 7 9 mph 1010.6mb 65f 63f
12:40am 4.5ft  -  6s 4 9 mph 1010.8mb 65f 62f
12:30am  -   -   -  4 9 mph 1010.8mb 65f 63f
12:20am  -   -   -  4 7 mph 1010.9mb 65f 63f
12:10am  -   -   -  4 7 mph 1010.8mb 65f 63f
12:00am  -   -   -  2 4 mph 1010.8mb 65f 63f
Tue 06/27 11:50pm 4.5ft 7s 5s 2 4 mph 1010.9mb 66f 63f
11:40pm 4.5ft  -  5s 2 2 mph 1010.9mb 66f 63f
11:30pm  -   -   -   -  4 mph 1010.8mb 66f 63f
11:20pm  -   -   -   -  2 mph 1010.8mb 65f 63f
11:10pm  -   -   -  2 4 mph 1011mb 66f 63f
11:00pm  -   -   -  2 4 mph 1011mb 66f 63f
10:50pm 4ft 7s 6s 4 7 mph 1010.9mb 66f 63f
10:40pm 4ft  -  6s 7 7 mph 1010.8mb 66f 63f
10:30pm  -   -   -  7 9 mph 1010.6mb 66f 64f
10:20pm  -   -   -  4 9 mph 1010.8mb 66f 64f
10:10pm  -   -   -  7 9 mph 1010.8mb 66f 64f
10:00pm  -   -   -  2 7 mph 1010.8mb 66f 63f
9:50pm 4.5ft 7s 6s 2 2 mph 1010.6mb 66f 63f
9:40pm 4.5ft  -  6s 2 4 mph 1010.5mb 66f 63f
9:30pm  -   -   -  4 7 mph 1010.3mb 66f 63f
9:20pm  -   -   -  7 7 mph 1010mb 66f 63f
9:10pm  -   -   -  7 9 mph 1010mb 67f 64f
9:00pm  -   -   -  2 4 mph 1010mb 67f 64f
8:50pm 4.5ft 6s 6s 2 4 mph 1009.9mb 67f 64f
8:40pm 4.5ft  -  6s 2 4 mph 1009.9mb 67f 64f
8:30pm  -   -   -  4 7 mph 1009.9mb 67f 64f
8:20pm  -   -   -  4 7 mph 1010mb 67f 64f
8:10pm  -   -   -  4 7 mph 1010mb 67f 64f
8:00pm  -   -   -  4 7 mph 1010.1mb 67f 65f
7:50pm 4.5ft 6s 6s 4 7 mph 1010.1mb 67f 65f
7:40pm  -   -   -  4 7 mph 1010.3mb 67f 65f
7:30pm  -   -   -  2 4 mph 1010.3mb 67f 65f
7:20pm  -   -   -  4 7 mph 1010.3mb 67f 65f
7:10pm  -   -   -  7 9 mph 1010.1mb - 65f
7:00pm  -   -   -  7 9 mph 1010.3mb 67f 65f
6:50pm 3.5ft 6s 6s 9 11 mph 1010.3mb 67f 65f
6:40pm  -   -   -  9 11 mph 1010.1mb 68f 65f
6:30pm  -   -   -  11 11 mph 1010.3mb 67f 65f
6:20pm  -   -   -  11 13 mph 1010.3mb 68f 65f
6:10pm  -   -   -  11 13 mph 1010.3mb 67f 65f
6:00pm  -   -   -  11 13 mph 1010.3mb 67f 65f
5:50pm 3.5ft 6s 6s 11 13 mph 1010.3mb 67f 65f
5:40pm 3.5ft  -  6s 11 13 mph 1010.3mb 68f 65f
5:30pm  -   -   -  11 13 mph 1010.4mb 68f 65f
5:20pm  -   -   -  11 13 mph 1010.5mb 68f 65f
5:10pm  -   -   -  9 11 mph 1010.6mb 68f 65f
5:00pm  -   -   -  9 11 mph 1010.8mb 67f 65f
4:50pm 3.5ft 14s 6s 7 9 mph 1010.9mb 68f 66f
4:40pm 3.5ft  -  6s 4 7 mph 1011mb 67f 66f
4:30pm  -   -   -  4 7 mph 1011mb 66f 66f
4:20pm  -   -   -  2 4 mph 1011.1mb 66f 66f
4:10pm  -   -   -  2 4 mph 1011.3mb 66f 66f
4:00pm  -   -   -   -  2 mph 1011.4mb 67f 65f
3:50pm 3.5ft 6s 5s  -  2 mph 1011.5mb 67f 65f
3:40pm 3.5ft  -  5s  -  2 mph 1011.5mb 66f 65f
3:30pm  -   -   -  2 4 mph 1011.5mb 67f 65f
3:20pm  -   -   -  2 4 mph 1011.5mb 67f 64f
3:10pm  -   -   -  2 7 mph 1011.5mb 66f 64f
3:00pm  -   -   -  4 7 mph 1011.5mb 66f 65f
2:50pm 3.5ft 5s 5s 4 11 mph 1011.5mb 66f 65f
2:40pm 3.5ft  -  5s 9 11 mph 1011.5mb 66f 65f
2:30pm  -   -   -  11 13 mph 1011.6mb 66f 65f
2:20pm  -   -   -  11 13 mph 1011.8mb 66f 65f
2:10pm  -   -   -  11 13 mph 1011.8mb 66f 65f
2:00pm  -   -   -  11 16 mph 1011.9mb 66f 65f
1:50pm 4ft 6s 5s 13 16 mph 1011.9mb 67f 64f
1:40pm 4ft  -  5s 13 16 mph 1012mb 67f 64f
1:30pm  -   -   -  11 16 mph 1012mb 67f 64f
1:20pm  -   -   -  13 16 mph 1012.1mb 66f 64f
1:10pm  -   -   -  16 18 mph 1012.1mb 67f 64f
1:00pm  -   -   -  16 18 mph 1012.1mb 67f 64f
12:50pm 4ft 6s 5s 13 18 mph 1012.3mb 67f 64f
12:40pm  -   -   -  13 16 mph 1012.4mb 67f 64f
12:30pm  -   -   -  13 16 mph 1012.4mb 67f 63f
12:20pm  -   -   -  13 16 mph 1012.5mb 67f 63f
12:10pm  -   -   -  13 18 mph 1012.5mb 67f 63f
12:00pm  -   -   -  16 18 mph 1012.5mb 67f 63f
11:50am 4ft 6s 6s 13 18 mph 1012.5mb 67f 63f
11:40am  -   -   -  11 13 mph 1012.5mb 67f 64f
11:30am  -   -   -  9 11 mph 1012.5mb 67f 64f
11:20am  -   -   -  7 9 mph 1012.6mb 66f 64f
11:10am  -   -   -  9 9 mph 1012.6mb 66f 64f
11:00am  -   -   -  9 11 mph 1012.6mb 66f 64f
10:50am 3.5ft 13s 5s 4 9 mph 1012.6mb 66f 64f
10:40am  -   -   -  4 7 mph 1012.6mb 66f 64f
10:30am  -   -   -  4 9 mph 1012.6mb 66f 64f
10:20am  -   -   -  7 9 mph 1012.5mb 66f 64f
10:10am  -   -   -  9 11 mph 1012.5mb 66f 63f
10:00am  -   -   -  9 11 mph 1012.5mb 66f 64f
9:50am 4ft 6s 5s 11 13 mph 1012.5mb 66f 64f
9:40am  -   -   -  11 13 mph 1012.5mb 66f 64f
9:30am  -   -   -  13 16 mph 1012.5mb 66f 64f
9:20am  -   -   -  13 16 mph 1012.5mb 66f 64f
9:10am  -   -   -  13 18 mph 1012.5mb 66f 64f
9:00am  -   -   -  13 18 mph 1012.4mb 66f 64f
8:50am 3.5ft 6s 5s 13 18 mph 1012.4mb 66f 64f
8:40am  -   -   -  13 16 mph 1012.4mb 66f 64f
8:30am  -   -   -  11 16 mph 1012.1mb 66f 64f
8:20am  -   -   -  13 16 mph 1012.1mb 66f 64f
8:10am  -   -   -  13 16 mph 1012mb 66f 64f
8:00am  -   -   -  13 18 mph 1011.9mb 66f 64f
7:50am 3.5ft 7s 5s 16 18 mph 1011.9mb 66f 64f
7:40am 3.5ft  -  5s 16 20 mph 1011.8mb 66f 64f
7:30am  -   -   -  16 18 mph 1011.6mb - 64f
7:20am  -   -   -  13 16 mph 1011.6mb 66f 64f
7:10am  -   -   -  13 18 mph 1011.5mb 66f 64f
7:00am  -   -   -  13 16 mph 1011.5mb 66f 64f
6:50am 4ft 6s 5s 16 18 mph 1011.5mb 66f 64f
6:40am  -   -   -  13 18 mph 1011.3mb 66f 64f
6:30am  -   -   -  13 18 mph 1011.3mb 66f 64f
6:20am  -   -   -  13 18 mph 1011.1mb 66f 64f
6:10am  -   -   -  13 16 mph 1011.1mb 66f 64f
6:00am  -   -   -  13 18 mph 1011mb 66f 64f
5:50am 4ft 14s 5s 13 18 mph 1011mb 66f 64f
5:40am 4ft  -  5s 13 16 mph 1011mb 66f 64f
5:30am  -   -   -  13 16 mph 1011mb 66f 64f
5:20am  -   -   -  13 16 mph 1010.8mb 66f 64f
5:10am  -   -   -  13 18 mph 1010.8mb 66f 64f
5:00am  -   -   -  13 18 mph 1010.8mb 66f 64f
4:50am 4ft 6s 5s 16 20 mph 1010.6mb 66f 65f
4:40am 4ft  -  5s 13 20 mph 1010.5mb 65f 65f
4:30am  -   -   -  11 16 mph 1010.5mb 65f 64f
4:20am  -   -   -  13 16 mph 1010.8mb 66f 64f
4:10am  -   -   -  13 16 mph 1010.8mb 66f 64f
4:00am  -   -   -  13 16 mph 1010.9mb 66f 65f
3:50am 4.5ft 14s 5s 11 16 mph 1010.8mb 66f 65f
3:40am 4.5ft  -  5s 13 18 mph 1010.6mb 66f 66f
3:30am  -   -   -  16 18 mph 1010.6mb 66f 66f
3:20am  -   -   -  16 20 mph 1010.5mb 66f 66f
3:10am  -   -   -  18 22 mph 1010.6mb 66f 66f
3:00am  -   -   -  18 22 mph 1010.5mb 66f 66f
2:50am 4ft 6s 5s 13 18 mph 1010.5mb 66f 66f
2:40am 4ft  -  5s 13 18 mph 1010.5mb 66f 66f
2:30am  -   -   -  13 18 mph 1010.5mb 66f 66f
2:20am  -   -   -  16 20 mph 1010.8mb 66f 66f
2:10am  -   -   -  13 18 mph 1010.9mb 66f 66f
2:00am  -   -   -  11 13 mph 1011mb 66f 66f
1:50am 4.5ft 14s 5s 11 16 mph 1011mb 66f 66f
1:40am 4.5ft  -  5s 9 11 mph 1011mb 66f 66f
1:30am  -   -   -  11 13 mph 1011mb 66f 66f
1:20am  -   -   -  11 13 mph 1011mb 66f 66f
1:10am  -   -   -  11 16 mph 1011mb 66f 66f
1:00am  -   -   -  11 16 mph 1011mb 67f 65f
12:50am 4.5ft 6s 5s 13 16 mph 1011mb 67f 65f
12:40am  -   -   -  11 13 mph 1011.1mb 67f 65f
12:30am  -   -   -  11 13 mph 1011.4mb 67f 65f
12:20am  -   -   -  9 13 mph 1011.5mb 67f 65f
12:10am  -   -   -  9 13 mph 1011.8mb 67f 65f
12:00am  -   -   -  9 13 mph 1011.9mb 67f 65f
Mon 06/26 11:50pm 4.5ft 6s 5s 9 11 mph 1012mb 66f 65f
11:40pm 4.5ft  -  5s 11 13 mph 1011.9mb 66f 65f
11:30pm  -   -   -  11 13 mph 1011.8mb 66f 65f
11:20pm  -   -   -  11 13 mph 1011.8mb 67f 65f
11:10pm  -   -   -  11 13 mph 1011.6mb 67f 65f
11:00pm  -   -   -  9 11 mph 1011.6mb 67f 65f
10:50pm 4.5ft 6s 5s 9 11 mph 1011.8mb 67f 65f
10:40pm 4.5ft  -  5s 11 13 mph 1011.6mb 67f 65f
10:30pm  -   -   -  9 11 mph 1011.9mb 67f 64f
10:20pm  -   -   -  9 11 mph 1011.9mb 67f 64f
10:10pm  -   -   -  9 11 mph 1011.8mb 67f 64f
10:00pm  -   -   -  7 9 mph 1011.9mb 67f 65f
9:50pm 4.5ft 6s 6s 7 9 mph 1011.8mb 68f 65f
9:40pm 4.5ft  -  6s 7 7 mph 1011.8mb 68f 65f
9:30pm  -   -   -  4 7 mph 1011.5mb 68f 65f
9:20pm  -   -   -  4 7 mph 1011.5mb 68f 65f
9:10pm  -   -   -  4 7 mph 1011.4mb 68f 65f
9:00pm  -   -   -  7 7 mph 1011.4mb 68f 65f
8:50pm 4.5ft 6s 6s 7 7 mph 1011.5mb 68f 66f
8:40pm 4.5ft  -  6s 4 7 mph 1011.5mb 68f 66f
8:30pm  -   -   -  4 7 mph 1011.5mb 68f 67f
8:20pm  -   -   -  4 9 mph 1011.5mb 68f 67f
8:10pm  -   -   -  7 9 mph 1011.5mb 68f 67f
8:00pm  -   -   -  7 9 mph 1011.5mb 68f 67f
7:50pm 4.5ft 6s 6s 4 7 mph 1011.5mb 68f 67f
7:40pm 4.5ft  -  6s 2 4 mph 1011.5mb 68f 67f
7:30pm  -   -   -  2 4 mph 1011.5mb 68f 67f
7:20pm  -   -   -  7 9 mph 1011.6mb 68f 68f
7:10pm  -   -   -  9 9 mph 1011.5mb 68f 68f
7:00pm  -   -   -  9 11 mph 1011.5mb 68f 68f
6:50pm 4ft 6s 6s 9 13 mph 1011.5mb 68f 68f
6:40pm 4ft  -  6s 11 13 mph 1011.5mb 68f 68f
6:30pm  -   -   -  13 16 mph 1011.5mb 68f 68f
6:20pm  -   -   -  13 16 mph 1011.5mb 68f 68f
6:10pm  -   -   -  11 16 mph 1011.5mb 68f 68f
6:00pm  -   -   -  11 13 mph 1011.6mb 69f 68f
5:50pm 3.5ft 13s 6s 11 13 mph 1011.6mb 69f 68f
5:40pm  -   -   -  11 16 mph 1011.8mb 69f 68f
5:30pm  -   -   -  11 13 mph 1012mb 68f 68f
5:20pm  -   -   -  9 11 mph 1012.1mb 68f 68f
5:10pm  -   -   -  9 11 mph 1012.1mb 68f 69f
5:00pm  -   -   -  9 9 mph 1012.3mb 68f 69f
4:50pm 3ft 15s 6s 4 9 mph 1012.4mb 68f 70f
4:40pm 3ft  -  6s 2 4 mph 1012.5mb 67f 69f
4:30pm  -   -   -  2 4 mph 1012.5mb 67f 69f
4:20pm  -   -   -  4 7 mph 1012.6mb 67f 69f
4:10pm  -   -   -  4 7 mph 1012.6mb 67f 69f
4:00pm  -   -   -  4 4 mph 1012.8mb 68f 68f
3:50pm 3ft 15s 6s 4 4 mph 1012.9mb 68f 68f
3:40pm  -   -   -  2 4 mph 1013mb 67f 68f
3:30pm  -   -   -  2 4 mph 1013mb 67f 68f
3:20pm  -   -   -  2 4 mph 1013.1mb 67f 68f
3:10pm  -   -   -  2 4 mph 1013.1mb 67f 68f
3:00pm  -   -   -  2 4 mph 1013.1mb 67f 68f
2:50pm 3ft 15s 6s 2 4 mph 1013.1mb 67f 68f
2:40pm  -   -   -  2 4 mph 1013.1mb 67f 68f
2:30pm  -   -   -  2 4 mph 1013.3mb 67f 67f
2:20pm  -   -   -  4 7 mph 1013.3mb 67f 67f
2:10pm  -   -   -  4 7 mph 1013.3mb 67f 67f
2:00pm  -   -   -  7 9 mph 1013.1mb 67f 67f
1:50pm 3ft 15s 6s 9 9 mph 1013.3mb 67f 67f
1:40pm 3ft  -  6s 7 9 mph 1013.1mb 67f 67f
1:30pm  -   -   -  4 7 mph 1013.3mb 67f 67f
1:20pm  -   -   -  2 4 mph 1013.1mb 66f 66f
1:10pm  -   -   -   -  2 mph 1013mb 66f 66f
1:00pm  -   -   -   -  2 mph 1013.1mb 66f 66f
12:50pm 3.5ft 13s 5s 2 2 mph 1013.4mb 66f 65f
12:40pm 3.5ft  -  5s 2 4 mph 1013.5mb 66f 65f
12:30pm  -   -   -  4 4 mph 1013.5mb 66f 65f
12:20pm  -   -   -  4 7 mph 1013.5mb 66f 65f
12:10pm  -   -   -  4 7 mph 1013.5mb 66f 65f
12:00pm  -   -   -  4 7 mph 1013.5mb 66f 65f
11:50am 3.5ft 15s 5s 4 7 mph 1013.5mb 66f 65f
11:40am  -   -   -  4 7 mph 1013.5mb 65f 65f
11:30am  -   -   -  7 7 mph 1013.5mb 65f 65f
11:20am  -   -   -  9 9 mph 1013.4mb 65f 64f
11:10am  -   -   -  9 11 mph 1013.4mb 65f 64f
11:00am  -   -   -  9 11 mph 1013.4mb 65f 64f
10:50am 3.5ft 15s 6s 9 11 mph 1013.5mb 65f 64f
10:40am  -   -   -  9 11 mph 1013.3mb 65f 64f
10:30am  -   -   -  9 11 mph 1013.3mb 65f 64f
10:20am  -   -   -  9 11 mph 1013.3mb 65f 64f
10:10am  -   -   -  9 11 mph 1013.1mb 65f 64f
10:00am  -   -   -  9 11 mph 1013.1mb 65f 64f
9:50am 4ft 13s 6s 7 9 mph 1013.3mb 65f 64f
9:40am  -   -   -  9 11 mph 1013.3mb 65f 64f
9:30am  -   -   -  9 11 mph 1013.1mb 65f 64f
9:20am  -   -   -  9 11 mph 1013.1mb 65f 64f
9:10am  -   -   -  7 9 mph 1013.4mb 65f 64f
9:00am  -   -   -  7 9 mph 1013.4mb 65f 64f
8:50am 4ft 13s 6s 7 11 mph 1013.5mb 65f 64f
8:40am  -   -   -  9 13 mph 1013mb 65f 64f
8:30am  -   -   -  11 13 mph 1012.9mb 65f 64f
8:20am  -   -   -  11 13 mph 1012.9mb 65f 64f
8:10am  -   -   -  11 13 mph 1012.6mb 65f 65f
8:00am  -   -   -  9 11 mph 1012.8mb 65f 65f
7:50am 3.5ft 13s 6s 9 11 mph 1012.6mb 65f 64f
7:40am 3.5ft  -  6s 9 13 mph 1012.6mb 65f 64f
7:30am  -   -   -  11 13 mph 1012.6mb 65f 64f
7:20am  -   -   -  9 11 mph 1012.5mb 65f 64f
7:10am  -   -   -  11 11 mph 1012.4mb 65f 64f
7:00am  -   -   -  11 13 mph 1012.4mb 65f 64f
6:50am 3.5ft 13s 6s 11 13 mph 1012mb 64f 64f
6:40am 3.5ft  -  6s 11 13 mph 1012mb 64f 64f
6:30am  -   -   -  11 13 mph 1012mb 64f 64f
6:20am  -   -   -  11 13 mph 1012mb 64f 64f
6:10am  -   -   -  9 13 mph 1012mb 64f 64f
6:00am  -   -   -  9 11 mph 1011.9mb 64f 63f
5:50am 4ft 6s 5s 7 11 mph 1012mb 64f 63f
5:40am 4ft  -  5s 4 4 mph 1012mb 64f 63f
5:30am  -   -   -  2 4 mph 1012mb 64f 63f
5:20am  -   -   -  2 7 mph 1012.1mb 64f 63f
5:10am  -   -   -  4 7 mph 1012mb 64f 64f
5:00am  -   -   -  7 9 mph 1011.9mb 64f 64f
4:50am 4ft 5s 5s 7 9 mph 1011.5mb 64f 64f
4:40am 4ft  -  5s 7 11 mph 1011.6mb 64f 64f
4:30am  -   -   -  9 11 mph 1011.5mb 64f 64f
4:20am  -   -   -  9 13 mph 1011.6mb 64f 64f
4:10am  -   -   -  9 13 mph 1011.5mb 64f 64f
4:00am  -   -   -  9 11 mph 1011.5mb 64f 64f
3:50am 4.5ft 5s 5s 9 11 mph 1011.5mb 64f 64f
3:40am  -   -   -  9 11 mph 1011.5mb 64f 64f
3:30am 4.5ft  -  5s 9 11 mph 1011.6mb 64f 64f
3:20am  -   -   -  9 11 mph 1011.6mb 64f 64f
3:10am  -   -   -  9 11 mph 1011.5mb 64f 65f
3:00am  -   -   -  7 11 mph 1011.6mb 64f 65f
2:50am 4.5ft 6s 6s 7 9 mph 1011.8mb 64f 65f
2:40am  -   -   -  4 7 mph 1011.6mb 64f 65f
2:30am  -   -   -  4 7 mph 1011.8mb 64f 65f
2:20am  -   -   -  4 4 mph 1011.8mb 64f 65f
2:10am  -   -   -  4 7 mph 1011.8mb 64f 65f
2:00am  -   -   -  7 9 mph 1011.6mb 64f 65f
1:50am 4.5ft 7s 5s 9 11 mph 1011.5mb 64f 65f
1:40am 4.5ft  -  5s 9 11 mph 1011.5mb 64f 65f
1:30am  -   -   -  9 11 mph 1011.6mb 64f 65f
1:20am  -   -   -  9 13 mph 1011.6mb 64f 65f
1:10am  -   -   -  9 11 mph 1011.5mb 64f 65f
1:00am  -   -   -  9 11 mph 1011.6mb 64f 65f
12:50am 5ft 7s 6s 9 11 mph 1011.8mb 64f 65f
12:40am 5ft  -  6s 9 11 mph 1011.8mb 64f 64f
12:30am  -   -   -  9 9 mph 1011.8mb 64f 64f
12:20am  -   -   -  9 11 mph 1011.8mb 64f 64f
12:10am  -   -   -  9 11 mph 1011.9mb 64f 65f
12:00am  -   -   -  9 11 mph 1011.9mb 64f 65f
Sun 06/25 11:50pm 4.5ft 6s 5s 7 9 mph 1012mb 64f 65f
11:40pm  -   -   -  7 9 mph 1012mb 64f 65f
11:30pm  -   -   -  7 9 mph 1012mb 64f 65f
11:20pm  -   -   -  7 9 mph 1012mb 64f 64f
11:10pm  -   -   -  7 9 mph 1012mb 64f 64f
11:00pm  -   -   -  9 9 mph 1012mb 64f 64f
10:50pm 5ft 6s 6s 9 11 mph 1012mb 64f 64f
10:40pm 5ft  -  6s 9 11 mph 1012mb 64f 64f
10:30pm  -   -   -  7 11 mph 1011.9mb 64f 64f
10:20pm  -   -   -  9 9 mph 1011.8mb 64f 64f
10:10pm  -   -   -  7 9 mph 1011.8mb 64f 64f
10:00pm  -   -   -  7 9 mph 1011.8mb 64f 64f
9:50pm 5ft 6s 6s 7 9 mph 1011.6mb 64f 64f
9:40pm  -   -   -  7 9 mph 1011.5mb 64f 64f
9:30pm  -   -   -  7 9 mph 1011.5mb 64f 65f
9:20pm  -   -   -  7 9 mph 1011.5mb 65f 64f
9:10pm  -   -   -  7 9 mph 1011.4mb 65f 64f
9:00pm  -   -   -  7 9 mph 1011.5mb 65f 64f
8:50pm 5ft 6s 6s 4 7 mph 1011.4mb 65f 64f
8:40pm  -   -   -  4 7 mph 1011.3mb 65f 64f
8:30pm  -   -   -  4 7 mph 1011.3mb 65f 65f
8:20pm  -   -   -  4 7 mph 1011.3mb 65f 65f
8:10pm  -   -   -  4 7 mph 1011.3mb 65f 65f
8:00pm  -   -   -  4 7 mph 1011.1mb 65f 65f
7:50pm 4.5ft 6s 5s 4 7 mph 1011.1mb 65f 66f
7:40pm 4.5ft  -  5s 7 9 mph 1011mb 65f 67f
7:30pm  -   -   -  7 9 mph 1011mb 65f 67f
7:20pm  -   -   -  4 7 mph 1011mb 65f 67f
7:10pm  -   -   -  7 9 mph 1011mb 65f 67f
7:00pm  -   -   -  7 9 mph 1011.1mb 65f 67f
6:50pm 4.5ft 14s 6s 7 11 mph 1011.1mb 65f 67f
6:40pm  -   -   -  7 9 mph 1011.1mb 65f 67f
6:30pm  -   -   -  4 9 mph 1011.1mb 66f 67f
6:20pm  -   -   -  4 7 mph 1011mb 65f 67f
6:10pm  -   -   -  4 7 mph 1011mb 66f 67f
6:00pm  -   -   -  4 7 mph 1011mb 66f 67f
5:50pm 4.5ft 14s 5s 7 9 mph 1011.1mb 65f 67f
5:40pm 4.5ft  -  5s 7 9 mph 1011.1mb 65f 67f
5:30pm  -   -   -  7 9 mph 1011.3mb 66f 67f
5:20pm  -   -   -  7 11 mph 1011.3mb 65f 67f
5:10pm  -   -   -  9 13 mph 1011.4mb 65f 66f
5:00pm  -   -   -  11 16 mph 1011.3mb 65f 66f
4:50pm 3.5ft 14s 5s 11 13 mph 1011.1mb 65f 66f
4:40pm 3.5ft  -  5s 11 11 mph 1011.4mb 66f 66f
4:30pm  -   -   -  9 11 mph 1011.5mb 65f 65f
4:20pm  -   -   -  9 13 mph 1011.8mb 66f 66f
4:10pm  -   -   -  7 9 mph 1011.9mb 66f 66f
4:00pm  -   -   -  9 11 mph 1011.9mb - 66f
3:50pm 3ft 15s 5s 7 9 mph 1011.9mb 66f 66f
3:40pm 3ft  -  5s 7 9 mph 1012mb 66f 66f
3:30pm  -   -   -  7 9 mph 1012mb 66f 65f
3:20pm  -   -   -  7 9 mph 1012mb 66f 65f
3:10pm  -   -   -  7 9 mph 1012.1mb 66f 65f
3:00pm  -   -   -  9 9 mph 1012.3mb 66f 65f
2:50pm 3ft 14s 6s 9 9 mph 1012.3mb 66f 65f
2:40pm 3ft  -  6s 9 11 mph 1012.3mb 66f 65f
2:30pm  -   -   -  9 11 mph 1012.4mb 66f 65f
2:20pm  -   -   -  9 11 mph 1012.4mb 66f 65f
2:10pm  -   -   -  9 11 mph 1012.3mb 66f 65f
2:00pm  -   -   -  9 11 mph 1012.3mb 66f 65f
1:50pm 3ft 14s 5s 11 11 mph 1012.4mb 66f 65f
1:40pm 3ft  -  5s 11 13 mph 1012.4mb 66f 65f
1:30pm  -   -   -  11 13 mph 1012.5mb 66f 65f
1:20pm  -   -   -  11 13 mph 1012.5mb 66f 65f
1:10pm  -   -   -  11 13 mph 1012.5mb 66f 65f
1:00pm  -   -   -  11 13 mph 1012.4mb 66f 65f
12:50pm 3ft 15s 5s 11 13 mph 1012.5mb 65f 65f
12:40pm 3ft  -  5s 11 13 mph 1012.6mb 65f 64f
12:30pm  -   -   -  11 13 mph 1012.8mb 65f 64f
12:20pm  -   -   -  11 13 mph 1012.6mb 65f 64f
12:10pm  -   -   -  9 11 mph 1012.8mb 65f 64f
12:00pm  -   -   -  9 11 mph 1012.6mb 65f 65f
11:50am 3.5ft 13s 6s 9 11 mph 1012.6mb 65f 65f
11:40am 3.5ft  -  6s 7 9 mph 1012.8mb 65f 65f
11:30am  -   -   -  7 9 mph 1012.9mb 65f 65f
11:20am  -   -   -  7 9 mph 1012.9mb 65f 65f
11:10am  -   -   -  9 11 mph 1012.8mb 65f 65f
11:00am  -   -   -  9 11 mph 1012.9mb 65f 65f
10:50am 3.5ft 14s 6s 9 11 mph 1012.9mb 65f 64f
10:40am 3.5ft  -  6s 9 11 mph 1012.9mb 65f 64f
10:30am  -   -   -  9 9 mph 1012.9mb 65f 64f
10:20am  -   -   -  9 11 mph 1013mb 65f 64f
10:10am  -   -   -  9 11 mph 1013mb 65f 64f
10:00am  -   -   -  9 11 mph 1012.9mb 65f 63f
9:50am 3.5ft 14s 6s 9 11 mph 1012.9mb 65f 63f
9:40am 3.5ft  -  6s 9 11 mph 1013mb 65f 63f
9:30am  -   -   -  9 11 mph 1013mb 65f 63f
9:20am  -   -   -  7 9 mph 1013mb 65f 63f
9:10am  -   -   -  4 9 mph 1013mb 65f 63f
9:00am  -   -   -  7 9 mph 1013mb 65f 63f
8:50am 4ft 14s 6s 7 9 mph 1013mb 64f 62f
8:40am 4ft  -  6s 7 9 mph 1012.9mb 64f 62f
8:30am  -   -   -  7 9 mph 1012.9mb 64f 62f
8:20am  -   -   -  7 9 mph 1012.9mb 64f 62f
8:10am  -   -   -  7 9 mph 1012.9mb 64f 63f
8:00am  -   -   -  4 7 mph 1012.9mb 64f 63f
7:50am 4ft 15s 6s 2 4 mph 1012.9mb 64f 63f
7:40am 4ft  -  6s 2 4 mph 1012.8mb 64f 63f
7:30am  -   -   -  4 4 mph 1012.6mb 64f 63f
7:20am  -   -   -  4 7 mph 1012.5mb 64f 62f
7:10am  -   -   -  4 7 mph 1012.5mb 64f 62f
7:00am  -   -   -  4 7 mph 1012.5mb 64f 62f
6:50am 4.5ft 15s 6s 4 7 mph 1012.4mb 64f 62f
6:40am 4.5ft  -  6s 7 9 mph 1012.3mb 64f 62f
6:30am  -   -   -  7 9 mph 1012.1mb 64f 62f
6:20am  -   -   -  9 11 mph 1012mb 64f 62f
6:10am  -   -   -  7 9 mph 1012mb 64f 62f
6:00am  -   -   -  7 9 mph 1011.9mb 64f 62f
5:50am 4ft 7s 6s 7 9 mph 1011.9mb 64f 62f
5:40am 4ft  -  6s 7 11 mph 1011.5mb 64f 62f
5:30am  -   -   -   -  2 mph 1011.5mb 64f 62f
5:20am  -   -   -   -  2 mph 1011.5mb 64f 63f
5:10am  -   -   -  2 4 mph 1011.4mb 64f 62f
5:00am  -   -   -  2 4 mph 1011.4mb 64f 62f
4:50am 4.5ft 14s 6s 2 4 mph 1011.1mb 64f 62f
4:40am 4.5ft  -  6s 2 4 mph 1011mb 64f 62f
4:30am  -   -   -  2 4 mph 1010.8mb 64f 62f
4:20am  -   -   -  2 4 mph 1010.9mb 64f 62f
4:10am  -   -   -  4 7 mph 1010.9mb 64f 62f
4:00am  -   -   -  4 7 mph 1010.8mb 64f 62f
3:50am 4.5ft 14s 6s 4 7 mph 1010.8mb 64f 62f
3:40am 4.5ft  -  6s 4 7 mph 1010.8mb 64f 62f
3:30am  -   -   -  2 4 mph 1010.8mb 64f 62f
3:20am  -   -   -  2 4 mph 1010.9mb 65f 62f
3:10am  -   -   -  2 7 mph 1010.8mb 65f 62f
3:00am  -   -   -  4 7 mph 1010.9mb 65f 62f
2:50am 4.5ft 14s 6s 4 7 mph 1010.9mb 65f 62f
2:40am 4.5ft  -  6s 4 7 mph 1010.9mb 65f 62f
2:30am  -   -   -  7 9 mph 1010.9mb 65f 62f
2:20am  -   -   -  7 9 mph 1010.8mb 65f 62f
2:10am  -   -   -  7 9 mph 1010.9mb 65f 62f
2:00am  -   -   -  7 9 mph 1010.9mb 65f 62f
1:50am 4.5ft 14s 6s 7 11 mph 1010.9mb 65f 63f
1:40am 4.5ft  -  6s 7 11 mph 1010.8mb 65f 63f
1:30am  -   -   -  7 9 mph 1010.8mb 65f 63f
1:20am  -   -   -  9 11 mph 1010.8mb 65f 63f
1:10am  -   -   -  9 11 mph 1010.8mb 65f 63f
1:00am  -   -   -  9 11 mph 1010.8mb 65f 63f
12:50am 4.5ft 13s 5s 7 11 mph 1011mb 65f 63f
12:40am 4.5ft  -  5s 2 7 mph 1010.9mb 65f 64f
12:30am  -   -   -  2 4 mph 1010.8mb 65f 63f
12:20am  -   -   -  2 4 mph 1010.8mb 65f 63f
12:10am  -   -   -  4 7 mph 1010.9mb 65f 64f
12:00am  -   -   -  4 7 mph 1011mb 65f 64f
Sat 06/24 11:50pm 5ft 15s 6s 4 7 mph 1011mb 65f 64f
11:40pm 5ft  -  6s 4 7 mph 1011mb 65f 64f
11:30pm  -   -   -  7 9 mph 1011mb 65f 64f
11:20pm  -   -   -  7 11 mph 1011mb 65f 64f
11:10pm  -   -   -  4 11 mph 1011mb 66f 64f
11:00pm  -   -   -  2 4 mph 1011mb 66f 64f
10:50pm 5ft 6s 6s 2 4 mph 1011mb 66f 64f
10:40pm  -   -   -  2 7 mph 1011mb 66f 64f
10:30pm  -   -   -  4 7 mph 1011mb 66f 64f
10:20pm  -   -   -  7 9 mph 1011mb 66f 64f
10:10pm  -   -   -  9 11 mph 1010.9mb 66f 64f
10:00pm  -   -   -  9 11 mph 1010.8mb 66f 64f
9:50pm 4.5ft 15s 6s 4 9 mph 1010.6mb 66f 64f
9:40pm 4.5ft  -  6s 7 9 mph 1010.5mb 66f 64f
9:30pm  -   -   -  7 11 mph 1010.5mb 66f 64f
9:20pm  -   -   -  11 13 mph 1010.5mb 66f 64f
9:10pm  -   -   -  13 16 mph 1010.5mb 66f 64f
9:00pm  -   -   -  13 18 mph 1010.4mb 67f 64f
8:50pm 4.5ft 14s 6s 13 18 mph 1010.3mb 67f 64f
8:40pm 4.5ft  -  6s 13 16 mph 1010.5mb 67f 64f
8:30pm  -   -   -  11 13 mph 1010.4mb 67f 64f
8:20pm  -   -   -  13 16 mph 1010.4mb 67f 64f
8:10pm  -   -   -  13 16 mph 1010.4mb 67f 64f
8:00pm  -   -   -  13 18 mph 1010.5mb 67f 65f
7:50pm 4.5ft 14s 5s 13 16 mph 1010.5mb 67f 65f
7:40pm 4.5ft  -  5s 11 16 mph 1010.5mb 67f 64f
7:30pm  -   -   -  16 18 mph 1010.5mb 67f 64f
7:20pm  -   -   -  18 22 mph 1010.5mb 67f 65f
7:10pm  -   -   -  16 20 mph 1010.4mb 67f 65f
7:00pm  -   -   -  16 20 mph 1010.3mb 67f 65f
6:50pm 4.5ft 15s 5s 18 20 mph 1010.3mb 67f 64f
6:40pm 4.5ft  -  5s 18 22 mph 1010.5mb 67f 64f
6:30pm  -   -   -  18 22 mph 1010.5mb 67f 65f
6:20pm  -   -   -  18 22 mph 1010.5mb 67f 65f
6:10pm  -   -   -  16 20 mph 1010.5mb 67f 65f
6:00pm  -   -   -  16 22 mph 1010.6mb 67f 65f
5:50pm 4.5ft  -  6s 13 18 mph 1010.6mb 67f 65f
5:40pm 4.5ft 14s 6s  -  mph - - -
5:30pm  -   -   -  11 13 mph 1010.9mb 68f 65f
5:20pm  -   -   -  9 11 mph 1011mb 67f 65f
5:10pm  -   -   -  7 9 mph 1011.1mb 68f 65f
5:00pm  -   -   -  9 11 mph 1011mb 67f 65f
4:50pm 4ft 14s 6s 9 11 mph 1011.3mb 67f 64f
4:40pm 4ft  -  6s 11 13 mph 1011.3mb 67f 64f
4:30pm  -   -   -  11 16 mph 1011.3mb 67f 64f
4:20pm  -   -   -  11 13 mph 1011.3mb 67f 64f
4:10pm  -   -   -  11 13 mph 1011.5mb 67f 64f
4:00pm  -   -   -  11 13 mph 1011.5mb 67f 65f
3:50pm 3.5ft 14s 5s 9 11 mph 1011.6mb 67f 64f
3:40pm 3.5ft  -  5s 9 16 mph 1011.8mb 67f 64f
3:30pm  -   -   -  13 16 mph 1011.9mb 67f 64f
3:20pm  -   -   -  16 18 mph 1011.9mb 67f 64f
3:10pm  -   -   -  16 20 mph 1011.9mb 67f 64f
3:00pm  -   -   -  18 20 mph 1012mb 67f 64f
2:50pm 3.5ft 15s 5s 20 22 mph 1012mb - 64f
2:40pm  -   -   -  18 22 mph 1012mb 67f 64f
2:30pm  -   -   -  18 20 mph 1012.1mb 67f 63f
2:20pm  -   -   -  18 22 mph 1012.1mb 67f 64f
2:10pm  -   -   -  20 22 mph 1012.1mb 67f 64f
2:00pm  -   -   -  16 20 mph 1012.4mb 67f 64f
1:50pm 3.5ft 15s 6s 16 18 mph 1012.4mb 67f 64f
1:40pm 3.5ft  -  6s 11 16 mph 1012.5mb 68f 65f